createdAt,value
2023-05-03T00:00:53.842Z,24.46
2023-05-03T00:01:53.862Z,24.46
2023-05-03T00:02:53.913Z,24.46
2023-05-03T00:03:53.897Z,24.46
2023-05-03T00:04:53.961Z,24.46
2023-05-03T00:05:53.987Z,24.46
2023-05-03T00:06:53.984Z,24.46
2023-05-03T00:07:54.000Z,24.48
2023-05-03T00:08:54.009Z,24.46
2023-05-03T00:09:53.992Z,24.46
2023-05-03T00:10:54.023Z,24.45
2023-05-03T00:11:54.051Z,24.43
2023-05-03T00:12:54.115Z,24.45
2023-05-03T00:13:54.098Z,24.46
2023-05-03T00:14:54.153Z,24.45
2023-05-03T00:15:54.150Z,24.46
2023-05-03T00:16:54.181Z,24.43
2023-05-03T00:17:54.283Z,24.45
2023-05-03T00:18:54.199Z,24.45
2023-05-03T00:19:54.242Z,24.45
2023-05-03T00:20:54.264Z,24.45
2023-05-03T00:21:54.295Z,24.46
2023-05-03T00:22:54.297Z,24.43
2023-05-03T00:23:54.320Z,24.45
2023-05-03T00:24:54.380Z,24.46
2023-05-03T00:25:54.790Z,24.46
2023-05-03T00:26:54.386Z,24.43
2023-05-03T00:27:54.437Z,24.43
2023-05-03T00:28:54.453Z,24.45
2023-05-03T00:29:54.455Z,24.40
2023-05-03T00:30:54.525Z,24.43
2023-05-03T00:31:54.518Z,24.43
2023-05-03T00:32:54.632Z,24.42
2023-05-03T00:33:54.618Z,24.43
2023-05-03T00:34:54.608Z,24.42
2023-05-03T00:35:54.624Z,24.43
2023-05-03T00:36:54.641Z,24.42
2023-05-03T00:37:54.674Z,24.42
2023-05-03T00:38:54.711Z,24.43
2023-05-03T00:39:54.735Z,24.43
2023-05-03T00:40:54.818Z,24.43
2023-05-03T00:41:54.770Z,24.43
2023-05-03T00:42:54.794Z,24.43
2023-05-03T00:43:54.818Z,24.42
2023-05-03T00:44:55.905Z,24.42
2023-05-03T00:46:01.904Z,24.43
2023-05-03T00:46:55.989Z,24.43
2023-05-03T00:47:54.908Z,24.42
2023-05-03T00:48:54.855Z,24.42
2023-05-03T00:49:54.833Z,24.45
2023-05-03T00:50:54.865Z,24.42
2023-05-03T00:51:54.836Z,24.42
2023-05-03T00:52:54.843Z,24.43
2023-05-03T00:53:54.832Z,24.42
2023-05-03T00:54:54.833Z,24.42
2023-05-03T00:55:54.799Z,24.42
2023-05-03T00:56:54.808Z,24.43
2023-05-03T00:57:54.797Z,24.40
2023-05-03T00:58:54.775Z,24.40
2023-05-03T00:59:54.788Z,24.42
2023-05-03T01:00:54.803Z,24.40
2023-05-03T01:01:54.826Z,24.40
2023-05-03T01:02:54.848Z,24.42
2023-05-03T01:03:54.906Z,24.40
2023-05-03T01:04:54.754Z,24.40
2023-05-03T01:05:54.759Z,24.39
2023-05-03T01:06:54.891Z,24.40
2023-05-03T01:07:54.891Z,24.42
2023-05-03T01:08:54.853Z,24.40
2023-05-03T01:09:54.871Z,24.40
2023-05-03T01:10:54.883Z,24.40
2023-05-03T01:11:54.904Z,24.40
2023-05-03T01:12:54.941Z,24.40
2023-05-03T01:13:54.943Z,24.40
2023-05-03T01:14:54.995Z,24.40
2023-05-03T01:15:55.024Z,24.40
2023-05-03T01:16:55.064Z,24.39
2023-05-03T01:17:55.077Z,24.39
2023-05-03T01:18:55.087Z,24.39
2023-05-03T01:19:55.109Z,24.42
2023-05-03T01:20:55.114Z,24.39
2023-05-03T01:21:55.145Z,24.39
2023-05-03T01:22:55.162Z,24.39
2023-05-03T01:23:55.184Z,24.39
2023-05-03T01:24:55.214Z,24.42
2023-05-03T01:25:55.320Z,24.40
2023-05-03T01:26:55.280Z,24.36
2023-05-03T01:27:55.301Z,24.40
2023-05-03T01:28:55.331Z,24.40
2023-05-03T01:29:55.342Z,24.39
2023-05-03T01:30:55.370Z,24.40
2023-05-03T01:31:55.477Z,24.39
2023-05-03T01:32:55.453Z,24.36
2023-05-03T01:33:55.484Z,24.39
2023-05-03T01:34:55.485Z,24.39
2023-05-03T01:35:55.487Z,24.39
2023-05-03T01:36:55.516Z,24.38
2023-05-03T01:37:55.542Z,24.38
2023-05-03T01:38:55.557Z,24.40
2023-05-03T01:39:55.577Z,24.39
2023-05-03T01:40:55.602Z,24.39
2023-05-03T01:41:55.628Z,24.39
2023-05-03T01:42:55.653Z,24.38
2023-05-03T01:43:55.699Z,24.39
2023-05-03T01:44:55.733Z,24.39
2023-05-03T01:45:55.827Z,24.38
2023-05-03T01:46:55.777Z,24.38
2023-05-03T01:47:55.828Z,24.38
2023-05-03T01:48:55.856Z,24.40
2023-05-03T01:49:55.874Z,24.40
2023-05-03T01:50:55.890Z,24.36
2023-05-03T01:51:55.901Z,24.39
2023-05-03T01:52:55.929Z,24.35
2023-05-03T01:53:55.918Z,24.39
2023-05-03T01:54:55.938Z,24.40
2023-05-03T01:55:55.969Z,24.38
2023-05-03T01:56:56.002Z,24.38
2023-05-03T01:57:56.039Z,24.39
2023-05-03T01:58:56.009Z,24.36
2023-05-03T01:59:56.039Z,24.38
2023-05-03T02:00:56.117Z,24.39
2023-05-03T02:01:56.102Z,24.38
2023-05-03T02:02:56.170Z,24.38
2023-05-03T02:03:56.242Z,24.35
2023-05-03T02:04:56.217Z,24.38
2023-05-03T02:05:56.231Z,24.35
2023-05-03T02:06:56.219Z,24.36
2023-05-03T02:07:56.254Z,24.35
2023-05-03T02:08:56.241Z,24.36
2023-05-03T02:09:56.270Z,24.36
2023-05-03T02:10:56.294Z,24.35
2023-05-03T02:11:56.317Z,24.36
2023-05-03T02:12:56.365Z,24.38
2023-05-03T02:13:56.377Z,24.36
2023-05-03T02:14:56.400Z,24.36
2023-05-03T02:15:56.481Z,24.35
2023-05-03T02:16:56.556Z,24.35
2023-05-03T02:17:56.519Z,24.36
2023-05-03T02:18:56.573Z,24.35
2023-05-03T02:19:56.583Z,24.35
2023-05-03T02:20:56.653Z,24.35
2023-05-03T02:21:56.636Z,24.36
2023-05-03T02:22:56.693Z,24.35
2023-05-03T02:23:56.734Z,24.35
2023-05-03T02:24:56.776Z,24.36
2023-05-03T02:25:56.905Z,24.32
2023-05-03T02:26:56.828Z,24.35
2023-05-03T02:27:56.844Z,24.36
2023-05-03T02:28:56.847Z,24.35
2023-05-03T02:29:56.876Z,24.32
2023-05-03T02:30:57.024Z,24.34
2023-05-03T02:31:56.911Z,24.36
2023-05-03T02:32:57.046Z,24.34
2023-05-03T02:33:57.001Z,24.34
2023-05-03T02:34:57.025Z,24.34
2023-05-03T02:35:57.067Z,24.36
2023-05-03T02:36:57.061Z,24.34
2023-05-03T02:37:57.094Z,24.36
2023-05-03T02:38:57.089Z,24.34
2023-05-03T02:39:57.107Z,24.32
2023-05-03T02:40:57.133Z,24.35
2023-05-03T02:41:57.149Z,24.35
2023-05-03T02:42:57.172Z,24.34
2023-05-03T02:43:57.175Z,24.34
2023-05-03T02:44:57.220Z,24.31
2023-05-03T02:45:57.224Z,24.34
2023-05-03T02:46:57.238Z,24.35
2023-05-03T02:47:57.346Z,24.34
2023-05-03T02:48:57.338Z,24.34
2023-05-03T02:49:57.347Z,24.34
2023-05-03T02:50:57.416Z,24.35
2023-05-03T02:51:57.387Z,24.32
2023-05-03T02:52:57.398Z,24.32
2023-05-03T02:53:57.430Z,24.32
2023-05-03T02:54:57.456Z,24.34
2023-05-03T02:55:57.460Z,24.34
2023-05-03T02:56:57.469Z,24.32
2023-05-03T02:57:57.488Z,24.32
2023-05-03T02:58:57.514Z,24.31
2023-05-03T02:59:57.531Z,24.34
2023-05-03T03:00:57.511Z,24.31
2023-05-03T03:01:57.566Z,24.32
2023-05-03T03:02:57.625Z,24.31
2023-05-03T03:03:57.585Z,24.32
2023-05-03T03:04:57.630Z,24.35
2023-05-03T03:05:57.656Z,24.32
2023-05-03T03:06:57.675Z,24.34
2023-05-03T03:07:57.693Z,24.32
2023-05-03T03:08:57.780Z,24.34
2023-05-03T03:09:57.789Z,24.32
2023-05-03T03:10:57.848Z,24.32
2023-05-03T03:11:57.873Z,24.31
2023-05-03T03:12:57.912Z,24.31
2023-05-03T03:13:57.958Z,24.31
2023-05-03T03:14:57.974Z,24.31
2023-05-03T03:15:58.081Z,24.29
2023-05-03T03:16:58.011Z,24.31
2023-05-03T03:17:58.149Z,24.31
2023-05-03T03:18:58.113Z,24.29
2023-05-03T03:19:58.137Z,24.31
2023-05-03T03:20:58.169Z,24.32
2023-05-03T03:21:58.202Z,24.31
2023-05-03T03:22:58.212Z,24.29
2023-05-03T03:23:58.248Z,24.31
2023-05-03T03:24:58.318Z,24.31
2023-05-03T03:25:58.385Z,24.29
2023-05-03T03:26:58.364Z,24.32
2023-05-03T03:27:58.426Z,24.31
2023-05-03T03:28:58.434Z,24.28
2023-05-03T03:29:58.462Z,24.29
2023-05-03T03:30:58.536Z,24.32
2023-05-03T03:31:58.618Z,24.31
2023-05-03T03:32:58.662Z,24.32
2023-05-03T03:33:58.565Z,24.29
2023-05-03T03:34:58.635Z,24.29
2023-05-03T03:35:58.671Z,24.29
2023-05-03T03:36:58.645Z,24.29
2023-05-03T03:37:58.704Z,24.29
2023-05-03T03:38:58.719Z,24.28
2023-05-03T03:39:58.706Z,24.28
2023-05-03T03:40:58.760Z,24.29
2023-05-03T03:41:58.782Z,24.29
2023-05-03T03:42:58.810Z,24.29
2023-05-03T03:43:58.778Z,24.29
2023-05-03T03:44:58.801Z,24.31
2023-05-03T03:45:58.817Z,24.29
2023-05-03T03:46:58.869Z,24.29
2023-05-03T03:47:58.838Z,24.29
2023-05-03T03:48:58.811Z,24.31
2023-05-03T03:49:58.829Z,24.28
2023-05-03T03:50:58.867Z,24.28
2023-05-03T03:51:58.861Z,24.31
2023-05-03T03:52:58.833Z,24.29
2023-05-03T03:53:58.841Z,24.31
2023-05-03T03:54:58.872Z,24.29
2023-05-03T03:55:58.955Z,24.28
2023-05-03T03:56:58.921Z,24.26
2023-05-03T03:57:58.976Z,24.29
2023-05-03T03:58:59.008Z,24.26
2023-05-03T03:59:59.012Z,24.28
2023-05-03T04:00:59.086Z,24.28
2023-05-03T04:01:59.131Z,24.29
2023-05-03T04:02:59.275Z,24.28
2023-05-03T04:03:59.297Z,24.28
2023-05-03T04:04:59.225Z,24.29
2023-05-03T04:05:59.239Z,24.29
2023-05-03T04:06:59.264Z,24.26
2023-05-03T04:07:59.273Z,24.29
2023-05-03T04:08:59.327Z,24.25
2023-05-03T04:09:59.378Z,24.26
2023-05-03T04:10:59.388Z,24.28
2023-05-03T04:11:59.433Z,24.29
2023-05-03T04:12:59.467Z,24.26
2023-05-03T04:13:59.504Z,24.28
2023-05-03T04:14:59.566Z,24.28
2023-05-03T04:15:59.566Z,24.26
2023-05-03T04:16:59.674Z,24.26
2023-05-03T04:17:59.685Z,24.28
2023-05-03T04:18:59.675Z,24.25
2023-05-03T04:19:59.722Z,24.28
2023-05-03T04:20:59.706Z,24.26
2023-05-03T04:21:59.720Z,24.25
2023-05-03T04:22:59.752Z,24.26
2023-05-03T04:23:59.760Z,24.28
2023-05-03T04:24:59.788Z,24.26
2023-05-03T04:26:00.592Z,24.26
2023-05-03T04:26:59.823Z,24.26
2023-05-03T04:27:59.857Z,24.26
2023-05-03T04:28:59.848Z,24.26
2023-05-03T04:29:59.955Z,24.28
2023-05-03T04:30:59.861Z,24.26
2023-05-03T04:31:59.811Z,24.28
2023-05-03T04:32:59.872Z,24.25
2023-05-03T04:33:59.839Z,24.28
2023-05-03T04:34:59.864Z,24.28
2023-05-03T04:35:59.838Z,24.29
2023-05-03T04:36:59.837Z,24.28
2023-05-03T04:37:59.872Z,24.25
2023-05-03T04:38:59.840Z,24.26
2023-05-03T04:39:59.969Z,24.29
2023-05-03T04:40:59.913Z,24.26
2023-05-03T04:41:59.924Z,24.26
2023-05-03T04:42:59.953Z,24.26
2023-05-03T04:43:59.961Z,24.26
2023-05-03T04:45:00.023Z,24.26
2023-05-03T04:46:00.059Z,24.28
2023-05-03T04:47:00.043Z,24.26
2023-05-03T04:48:00.152Z,24.26
2023-05-03T04:49:00.134Z,24.25
2023-05-03T04:50:00.230Z,24.26
2023-05-03T04:51:00.161Z,24.26
2023-05-03T04:52:00.234Z,24.28
2023-05-03T04:53:00.283Z,24.28
2023-05-03T04:54:00.254Z,24.26
2023-05-03T04:55:00.315Z,24.24
2023-05-03T04:56:00.345Z,24.25
2023-05-03T04:57:00.354Z,24.26
2023-05-03T04:58:00.398Z,24.25
2023-05-03T04:59:00.475Z,24.26
2023-05-03T05:00:00.539Z,24.25
2023-05-03T05:01:00.515Z,24.25
2023-05-03T05:02:00.710Z,24.25
2023-05-03T05:03:00.673Z,24.22
2023-05-03T05:04:00.870Z,24.26
2023-05-03T05:05:00.649Z,24.25
2023-05-03T05:06:00.711Z,24.24
2023-05-03T05:07:00.719Z,24.26
2023-05-03T05:08:00.805Z,24.25
2023-05-03T05:09:00.805Z,24.24
2023-05-03T05:10:01.064Z,24.25
2023-05-03T05:11:00.892Z,24.25
2023-05-03T05:12:00.922Z,24.26
2023-05-03T05:13:00.994Z,24.24
2023-05-03T05:14:01.006Z,24.25
2023-05-03T05:15:01.051Z,24.26
2023-05-03T05:16:01.086Z,24.25
2023-05-03T05:17:01.168Z,24.26
2023-05-03T05:18:01.248Z,24.26
2023-05-03T05:19:01.225Z,24.25
2023-05-03T05:20:01.487Z,24.28
2023-05-03T05:21:01.300Z,24.26
2023-05-03T05:22:01.309Z,24.26
2023-05-03T05:23:01.319Z,24.25
2023-05-03T05:24:01.439Z,24.26
2023-05-03T05:25:01.419Z,24.26
2023-05-03T05:26:01.445Z,24.28
2023-05-03T05:27:01.459Z,24.26
2023-05-03T05:28:01.934Z,24.28
2023-05-03T05:29:01.531Z,24.26
2023-05-03T05:30:01.794Z,24.28
2023-05-03T05:31:02.393Z,24.28
2023-05-03T05:32:01.895Z,24.28
2023-05-03T05:33:01.808Z,24.28
2023-05-03T05:34:01.848Z,24.28
2023-05-03T05:35:01.797Z,24.26
2023-05-03T05:36:01.875Z,24.28
2023-05-03T05:37:01.856Z,24.26
2023-05-03T05:38:01.857Z,24.22
2023-05-03T05:39:01.894Z,24.25
2023-05-03T05:40:02.199Z,24.26
2023-05-03T05:41:02.180Z,24.31
2023-05-03T05:42:02.063Z,24.31
2023-05-03T05:43:02.267Z,24.34
2023-05-03T05:44:02.066Z,24.36
2023-05-03T05:45:02.138Z,24.42
2023-05-03T05:46:02.162Z,24.45
2023-05-03T05:47:02.190Z,24.43
2023-05-03T05:48:02.234Z,24.46
2023-05-03T05:49:02.219Z,24.48
2023-05-03T05:50:04.437Z,24.49
2023-05-03T05:51:03.227Z,24.49
2023-05-03T05:52:02.210Z,24.49
2023-05-03T05:53:02.197Z,24.49
2023-05-03T05:54:02.193Z,24.48
2023-05-03T05:55:02.270Z,24.46
2023-05-03T05:56:02.199Z,24.48
2023-05-03T05:57:02.211Z,24.51
2023-05-03T05:58:02.183Z,24.46
2023-05-03T05:59:02.182Z,24.49
2023-05-03T06:00:02.356Z,24.46
2023-05-03T06:01:02.154Z,24.45
2023-05-03T06:02:02.237Z,24.48
2023-05-03T06:03:02.177Z,24.46
2023-05-03T06:04:02.155Z,24.48
2023-05-03T06:05:02.172Z,24.48
2023-05-03T06:06:02.190Z,24.48
2023-05-03T06:07:02.101Z,24.51
2023-05-03T06:08:02.226Z,24.51
2023-05-03T06:09:07.038Z,24.49
2023-05-03T06:10:03.271Z,24.52
2023-05-03T06:11:02.090Z,24.52
2023-05-03T06:12:02.137Z,24.52
2023-05-03T06:13:02.089Z,24.51
2023-05-03T06:14:02.085Z,24.54
2023-05-03T06:15:03.122Z,24.54
2023-05-03T06:16:02.067Z,24.56
2023-05-03T06:17:02.079Z,24.55
2023-05-03T06:18:02.107Z,24.52
2023-05-03T06:19:02.010Z,24.56
2023-05-03T06:20:02.221Z,24.56
2023-05-03T06:21:02.012Z,24.58
2023-05-03T06:22:02.060Z,24.60
2023-05-03T06:23:01.993Z,24.60
2023-05-03T06:24:01.987Z,24.63
2023-05-03T06:25:01.976Z,24.63
2023-05-03T06:26:02.014Z,24.62
2023-05-03T06:27:01.994Z,24.63
2023-05-03T06:28:01.997Z,24.65
2023-05-03T06:29:01.972Z,24.65
2023-05-03T06:30:02.281Z,24.65
2023-05-03T06:31:02.082Z,24.66
2023-05-03T06:32:01.996Z,24.68
2023-05-03T06:33:02.075Z,24.66
2023-05-03T06:34:02.903Z,24.68
2023-05-03T06:35:02.075Z,24.66
2023-05-03T06:36:02.057Z,24.69
2023-05-03T06:37:02.020Z,24.70
2023-05-03T06:38:02.477Z,24.68
2023-05-03T06:39:02.165Z,24.68
2023-05-03T06:40:02.282Z,24.73
2023-05-03T06:41:02.110Z,24.73
2023-05-03T06:42:02.037Z,24.68
2023-05-03T06:43:02.113Z,24.56
2023-05-03T06:44:02.113Z,24.52
2023-05-03T06:45:02.174Z,24.42
2023-05-03T06:46:02.226Z,24.38
2023-05-03T06:47:02.357Z,24.34
2023-05-03T06:48:02.381Z,24.38
2023-05-03T06:49:02.380Z,24.43
2023-05-03T06:50:02.756Z,24.46
2023-05-03T06:51:02.923Z,24.51
2023-05-03T06:52:02.427Z,24.55
2023-05-03T06:53:02.450Z,24.56
2023-05-03T06:54:02.469Z,24.63
2023-05-03T06:55:02.455Z,24.63
2023-05-03T06:56:02.553Z,24.72
2023-05-03T06:57:02.537Z,24.73
2023-05-03T06:58:02.641Z,24.78
2023-05-03T06:59:02.548Z,24.82
2023-05-03T07:00:02.958Z,24.86
2023-05-03T07:01:02.649Z,24.90
2023-05-03T07:02:02.749Z,24.96
2023-05-03T07:03:02.843Z,24.96
2023-05-03T07:04:02.913Z,25.02
2023-05-03T07:05:02.931Z,25.03
2023-05-03T07:06:02.926Z,25.06
2023-05-03T07:07:02.957Z,25.09
2023-05-03T07:08:03.002Z,25.11
2023-05-03T07:09:03.094Z,25.17
2023-05-03T07:10:03.447Z,25.19
2023-05-03T07:11:03.250Z,25.17
2023-05-03T07:12:03.203Z,25.24
2023-05-03T07:13:03.294Z,25.21
2023-05-03T07:14:03.292Z,25.24
2023-05-03T07:15:03.418Z,25.29
2023-05-03T07:16:03.836Z,25.31
2023-05-03T07:17:03.448Z,25.34
2023-05-03T07:18:03.630Z,25.36
2023-05-03T07:19:03.562Z,25.38
2023-05-03T07:20:03.775Z,25.43
2023-05-03T07:21:03.681Z,25.41
2023-05-03T07:22:03.819Z,25.45
2023-05-03T07:23:03.801Z,25.48
2023-05-03T07:24:03.832Z,25.55
2023-05-03T07:25:03.910Z,25.57
2023-05-03T07:26:03.998Z,25.61
2023-05-03T07:27:04.025Z,25.65
2023-05-03T07:28:04.029Z,25.65
2023-05-03T07:29:04.090Z,25.63
2023-05-03T07:30:04.421Z,25.67
2023-05-03T07:31:04.204Z,25.67
2023-05-03T07:32:04.347Z,25.67
2023-05-03T07:33:04.336Z,25.67
2023-05-03T07:34:04.315Z,25.68
2023-05-03T07:35:04.483Z,25.70
2023-05-03T07:36:04.798Z,25.71
2023-05-03T07:37:04.453Z,25.73
2023-05-03T07:38:04.945Z,25.71
2023-05-03T07:39:05.498Z,25.70
2023-05-03T07:40:04.707Z,25.71
2023-05-03T07:41:04.562Z,25.73
2023-05-03T07:42:04.579Z,25.71
2023-05-03T07:43:04.659Z,25.71
2023-05-03T07:44:04.704Z,25.71
2023-05-03T07:45:04.757Z,25.71
2023-05-03T07:46:04.759Z,25.68
2023-05-03T07:47:04.803Z,25.68
2023-05-03T07:48:04.970Z,25.73
2023-05-03T07:49:04.967Z,25.71
2023-05-03T07:50:05.112Z,25.71
2023-05-03T07:51:04.903Z,25.73
2023-05-03T07:52:04.951Z,25.77
2023-05-03T07:53:05.060Z,25.77
2023-05-03T07:54:04.955Z,25.74
2023-05-03T07:55:05.079Z,25.77
2023-05-03T07:56:04.998Z,25.81
2023-05-03T07:57:05.042Z,25.80
2023-05-03T07:58:05.087Z,25.80
2023-05-03T07:59:09.399Z,25.85
2023-05-03T08:00:06.406Z,25.88
2023-05-03T08:01:05.145Z,25.88
2023-05-03T08:02:05.174Z,25.91
2023-05-03T08:03:05.161Z,25.95
2023-05-03T08:04:05.345Z,25.94
2023-05-03T08:05:05.356Z,25.99
2023-05-03T08:06:05.078Z,25.99
2023-05-03T08:07:05.057Z,25.92
2023-05-03T08:08:05.017Z,25.91
2023-05-03T08:09:05.125Z,25.99
2023-05-03T08:10:05.196Z,26.05
2023-05-03T08:11:05.016Z,26.09
2023-05-03T08:12:04.989Z,26.14
2023-05-03T08:13:05.034Z,26.18
2023-05-03T08:14:05.300Z,26.17
2023-05-03T08:15:04.960Z,26.19
2023-05-03T08:16:04.975Z,26.17
2023-05-03T08:17:04.957Z,26.18
2023-05-03T08:18:05.076Z,26.19
2023-05-03T08:19:04.961Z,26.17
2023-05-03T08:20:05.189Z,26.18
2023-05-03T08:21:04.921Z,26.14
2023-05-03T08:22:04.923Z,26.14
2023-05-03T08:23:04.957Z,26.11
2023-05-03T08:24:04.913Z,26.14
2023-05-03T08:25:04.926Z,26.12
2023-05-03T08:26:04.881Z,26.08
2023-05-03T08:27:04.882Z,26.05
2023-05-03T08:28:04.914Z,26.01
2023-05-03T08:29:04.895Z,26.01
2023-05-03T08:30:05.194Z,25.98
2023-05-03T08:31:05.024Z,25.95
2023-05-03T08:32:05.021Z,25.94
2023-05-03T08:33:04.981Z,25.89
2023-05-03T08:34:04.997Z,25.87
2023-05-03T08:35:05.078Z,25.84
2023-05-03T08:36:05.067Z,25.83
2023-05-03T08:37:05.092Z,25.78
2023-05-03T08:38:05.129Z,25.74
2023-05-03T08:39:05.165Z,25.71
2023-05-03T08:40:05.502Z,25.65
2023-05-03T08:41:05.257Z,25.65
2023-05-03T08:42:05.297Z,25.65
2023-05-03T08:43:05.333Z,25.65
2023-05-03T08:44:05.408Z,25.67
2023-05-03T08:45:05.373Z,25.68
2023-05-03T08:46:05.429Z,25.70
2023-05-03T08:47:05.572Z,25.71
2023-05-03T08:48:05.510Z,25.77
2023-05-03T08:49:06.104Z,25.75
2023-05-03T08:50:06.511Z,25.75
2023-05-03T08:51:05.499Z,25.78
2023-05-03T08:52:05.528Z,25.77
2023-05-03T08:53:06.468Z,25.81
2023-05-03T08:54:05.611Z,25.85
2023-05-03T08:55:05.576Z,25.87
2023-05-03T08:56:05.623Z,25.88
2023-05-03T08:57:05.618Z,25.94
2023-05-03T08:58:05.641Z,25.94
2023-05-03T08:59:05.671Z,25.97
2023-05-03T09:00:06.718Z,25.98
2023-05-03T09:01:05.639Z,26.01
2023-05-03T09:02:05.764Z,26.02
2023-05-03T09:03:05.710Z,26.04
2023-05-03T09:04:06.123Z,26.05
2023-05-03T09:05:05.796Z,26.04
2023-05-03T09:06:05.708Z,26.07
2023-05-03T09:07:05.678Z,26.08
2023-05-03T09:08:06.027Z,26.09
2023-05-03T09:09:06.468Z,26.11
2023-05-03T09:10:05.855Z,26.11
2023-05-03T09:11:06.463Z,26.09
2023-05-03T09:12:05.718Z,26.08
2023-05-03T09:13:05.722Z,26.09
2023-05-03T09:14:05.788Z,26.11
2023-05-03T09:15:05.727Z,26.12
2023-05-03T09:16:05.790Z,26.12
2023-05-03T09:17:05.760Z,26.15
2023-05-03T09:18:05.840Z,26.15
2023-05-03T09:19:05.803Z,26.11
2023-05-03T09:20:05.967Z,26.15
2023-05-03T09:21:05.805Z,26.17
2023-05-03T09:22:05.936Z,26.18
2023-05-03T09:23:05.912Z,26.19
2023-05-03T09:24:05.921Z,26.19
2023-05-03T09:25:05.851Z,26.19
2023-05-03T09:26:05.882Z,26.21
2023-05-03T09:27:05.884Z,26.24
2023-05-03T09:28:05.911Z,26.25
2023-05-03T09:29:05.989Z,26.27
2023-05-03T09:30:06.123Z,26.27
2023-05-03T09:31:06.025Z,26.28
2023-05-03T09:32:06.185Z,26.32
2023-05-03T09:33:06.144Z,26.31
2023-05-03T09:34:06.155Z,26.31
2023-05-03T09:35:06.144Z,26.31
2023-05-03T09:36:06.218Z,26.31
2023-05-03T09:37:06.346Z,26.32
2023-05-03T09:38:06.367Z,26.34
2023-05-03T09:39:07.133Z,26.38
2023-05-03T09:40:06.370Z,26.39
2023-05-03T09:41:06.447Z,26.38
2023-05-03T09:42:06.374Z,26.39
2023-05-03T09:43:06.492Z,26.39
2023-05-03T09:44:06.470Z,26.42
2023-05-03T09:45:07.494Z,26.39
2023-05-03T09:46:06.631Z,26.42
2023-05-03T09:47:07.472Z,26.39
2023-05-03T09:48:07.069Z,26.40
2023-05-03T09:49:06.645Z,26.39
2023-05-03T09:50:07.115Z,26.34
2023-05-03T09:51:06.675Z,26.35
2023-05-03T09:52:06.604Z,26.34
2023-05-03T09:53:06.625Z,26.35
2023-05-03T09:54:07.560Z,26.35
2023-05-03T09:55:06.721Z,26.35
2023-05-03T09:56:06.783Z,26.35
2023-05-03T09:57:06.650Z,26.34
2023-05-03T09:58:06.996Z,26.32
2023-05-03T09:59:06.645Z,26.35
2023-05-03T10:00:06.610Z,26.35
2023-05-03T10:01:06.673Z,26.35
2023-05-03T10:02:06.589Z,26.34
2023-05-03T10:03:07.066Z,26.35
2023-05-03T10:04:06.647Z,26.35
2023-05-03T10:05:06.591Z,26.36
2023-05-03T10:06:06.741Z,26.35
2023-05-03T10:07:06.697Z,26.36
2023-05-03T10:08:06.738Z,26.35
2023-05-03T10:09:06.833Z,26.35
2023-05-03T10:10:06.859Z,26.35
2023-05-03T10:11:06.914Z,26.35
2023-05-03T10:12:06.970Z,26.34
2023-05-03T10:13:07.015Z,26.32
2023-05-03T10:14:07.036Z,26.35
2023-05-03T10:15:07.081Z,26.36
2023-05-03T10:16:07.115Z,26.36
2023-05-03T10:17:07.079Z,26.35
2023-05-03T10:18:07.100Z,26.34
2023-05-03T10:19:07.132Z,26.35
2023-05-03T10:20:07.084Z,26.35
2023-05-03T10:21:07.107Z,26.34
2023-05-03T10:22:07.182Z,26.36
2023-05-03T10:23:07.126Z,26.39
2023-05-03T10:24:07.157Z,26.32
2023-05-03T10:25:07.127Z,26.35
2023-05-03T10:26:07.116Z,26.36
2023-05-03T10:27:07.152Z,26.35
2023-05-03T10:28:07.121Z,26.34
2023-05-03T10:29:07.111Z,26.36
2023-05-03T10:30:08.014Z,26.36
2023-05-03T10:31:08.104Z,26.31
2023-05-03T10:32:07.094Z,26.29
2023-05-03T10:33:07.233Z,26.29
2023-05-03T10:34:07.143Z,26.31
2023-05-03T10:35:07.274Z,26.31
2023-05-03T10:36:07.120Z,26.31
2023-05-03T10:37:07.089Z,26.36
2023-05-03T10:38:07.559Z,26.34
2023-05-03T10:39:07.149Z,26.39
2023-05-03T10:40:07.157Z,26.39
2023-05-03T10:41:07.321Z,26.42
2023-05-03T10:42:07.167Z,26.40
2023-05-03T10:43:07.198Z,26.43
2023-05-03T10:44:07.229Z,26.43
2023-05-03T10:45:07.338Z,26.48
2023-05-03T10:46:07.507Z,26.49
2023-05-03T10:47:07.343Z,26.50
2023-05-03T10:48:07.438Z,26.49
2023-05-03T10:49:07.467Z,26.53
2023-05-03T10:50:07.495Z,26.55
2023-05-03T10:51:07.540Z,26.55
2023-05-03T10:52:07.551Z,26.56
2023-05-03T10:53:07.677Z,26.55
2023-05-03T10:54:07.672Z,26.56
2023-05-03T10:55:07.713Z,26.59
2023-05-03T10:56:07.808Z,26.59
2023-05-03T10:57:07.875Z,26.60
2023-05-03T10:58:07.928Z,26.63
2023-05-03T10:59:08.001Z,26.69
2023-05-03T11:00:08.023Z,26.70
2023-05-03T11:01:08.214Z,26.72
2023-05-03T11:02:08.341Z,26.72
2023-05-03T11:03:08.288Z,26.66
2023-05-03T11:04:08.310Z,26.68
2023-05-03T11:05:08.821Z,26.66
2023-05-03T11:06:08.463Z,26.63
2023-05-03T11:07:08.412Z,26.64
2023-05-03T11:08:08.527Z,26.62
2023-05-03T11:09:08.552Z,26.62
2023-05-03T11:10:08.691Z,26.58
2023-05-03T11:11:08.664Z,26.55
2023-05-03T11:12:08.783Z,26.49
2023-05-03T11:13:08.721Z,26.48
2023-05-03T11:14:08.773Z,26.46
2023-05-03T11:15:08.757Z,26.46
2023-05-03T11:16:08.745Z,26.34
2023-05-03T11:17:08.669Z,26.42
2023-05-03T11:18:08.825Z,26.46
2023-05-03T11:19:08.676Z,26.53
2023-05-03T11:20:08.774Z,26.55
2023-05-03T11:21:08.800Z,26.59
2023-05-03T11:22:08.885Z,26.59
2023-05-03T11:23:08.956Z,26.62
2023-05-03T11:24:09.025Z,26.60
2023-05-03T11:25:09.097Z,26.60
2023-05-03T11:26:09.216Z,26.60
2023-05-03T11:27:09.184Z,26.60
2023-05-03T11:28:09.563Z,26.60
2023-05-03T11:29:09.254Z,26.58
2023-05-03T11:30:09.549Z,26.56
2023-05-03T11:31:09.358Z,26.55
2023-05-03T11:32:09.445Z,26.56
2023-05-03T11:33:09.408Z,26.53
2023-05-03T11:34:09.502Z,26.53
2023-05-03T11:35:09.540Z,26.49
2023-05-03T11:36:09.508Z,26.50
2023-05-03T11:37:09.412Z,26.49
2023-05-03T11:38:09.547Z,26.50
2023-05-03T11:39:09.424Z,26.49
2023-05-03T11:40:09.515Z,26.48
2023-05-03T11:41:09.433Z,26.45
2023-05-03T11:42:09.421Z,26.45
2023-05-03T11:43:09.588Z,26.48
2023-05-03T11:44:17.285Z,26.43
2023-05-03T11:45:10.647Z,26.40
2023-05-03T11:46:09.488Z,26.39
2023-05-03T11:47:09.509Z,26.40
2023-05-03T11:48:09.391Z,26.38
2023-05-03T11:49:09.394Z,26.36
2023-05-03T11:50:09.355Z,26.36
2023-05-03T11:51:09.439Z,26.34
2023-05-03T11:52:09.409Z,26.32
2023-05-03T11:53:09.360Z,26.35
2023-05-03T11:54:21.008Z,26.32
2023-05-03T11:55:10.447Z,26.35
2023-05-03T11:56:09.310Z,26.31
2023-05-03T11:57:09.342Z,26.29
2023-05-03T11:58:09.375Z,26.25
2023-05-03T11:59:09.317Z,26.24
2023-05-03T12:00:09.278Z,26.21
2023-05-03T12:01:09.316Z,26.21
2023-05-03T12:02:09.504Z,26.22
2023-05-03T12:03:09.503Z,26.19
2023-05-03T12:04:09.478Z,26.14
2023-05-03T12:05:10.317Z,26.15
2023-05-03T12:06:09.987Z,26.12
2023-05-03T12:07:10.194Z,26.12
2023-05-03T12:08:11.448Z,26.11
2023-05-03T12:09:10.171Z,26.09
2023-05-03T12:10:15.012Z,26.11
2023-05-03T12:11:10.634Z,26.11
2023-05-03T12:12:10.752Z,26.08
2023-05-03T12:13:10.010Z,26.09
2023-05-03T12:14:10.647Z,26.11
2023-05-03T12:15:11.234Z,26.08
2023-05-03T12:16:13.396Z,26.11
2023-05-03T12:17:11.578Z,26.08
2023-05-03T12:18:10.024Z,26.11
2023-05-03T12:19:09.724Z,26.11
2023-05-03T12:20:41.056Z,26.07
2023-05-03T12:22:24.142Z,26.07
2023-05-03T12:23:10.950Z,26.07
2023-05-03T12:24:10.833Z,26.04
2023-05-03T12:25:10.137Z,26.04
2023-05-03T12:26:10.098Z,26.04
2023-05-03T12:27:09.405Z,26.04
2023-05-03T12:28:18.472Z,26.05
2023-05-03T12:29:12.127Z,26.04
2023-05-03T12:30:09.733Z,26.01
2023-05-03T12:31:09.443Z,26.01
2023-05-03T12:32:11.945Z,25.99
2023-05-03T12:33:10.385Z,25.98
2023-05-03T12:35:13.938Z,25.97
2023-05-03T12:36:09.755Z,25.98
2023-05-03T12:38:10.312Z,25.95
2023-05-03T12:39:10.484Z,25.95
2023-05-03T12:40:31.591Z,25.92
2023-05-03T12:41:10.361Z,25.94
2023-05-03T12:42:09.780Z,25.94
2023-05-03T12:43:09.319Z,25.94
2023-05-03T12:44:10.883Z,25.89
2023-05-03T12:46:28.917Z,25.89
2023-05-03T12:47:10.643Z,25.88
2023-05-03T12:48:09.652Z,25.91
2023-05-03T12:49:09.617Z,25.89
2023-05-03T12:50:12.201Z,25.89
2023-05-03T12:53:10.333Z,25.87
2023-05-03T12:54:10.571Z,25.85
2023-05-03T12:55:11.179Z,25.85
2023-05-03T12:56:13.235Z,25.85
2023-05-03T12:57:14.680Z,25.84
2023-05-03T13:00:14.596Z,25.85
2023-05-03T13:03:21.006Z,25.83